createdAt,value
2018-11-06T00:02:41.490Z,17.53
2018-11-06T00:07:45.260Z,19.07
2018-11-06T00:12:48.357Z,18.53
2018-11-06T00:17:51.463Z,18.90
2018-11-06T00:22:54.529Z,19.00
2018-11-06T00:27:57.610Z,20.87
2018-11-06T00:33:00.696Z,19.53
2018-11-06T00:38:03.771Z,19.00
2018-11-06T00:43:06.842Z,16.60
2018-11-06T00:48:09.922Z,17.67
2018-11-06T00:53:13.008Z,20.43
2018-11-06T00:58:16.104Z,17.90
2018-11-06T01:03:19.192Z,18.67
2018-11-06T01:08:22.305Z,19.70
2018-11-06T01:13:30.379Z,21.43
2018-11-06T01:18:33.448Z,19.50
2018-11-06T01:23:36.632Z,22.77
2018-11-06T01:28:39.707Z,18.23
2018-11-06T01:33:42.822Z,17.70
2018-11-06T01:38:45.925Z,19.20
2018-11-06T01:43:49.068Z,19.40
2018-11-06T01:48:52.156Z,16.10
2018-11-06T01:53:55.228Z,18.20
2018-11-06T01:58:58.316Z,19.03
2018-11-06T02:04:01.374Z,18.97
2018-11-06T02:09:06.942Z,18.87
2018-11-06T02:14:10.053Z,19.47
2018-11-06T02:19:13.145Z,18.60
2018-11-06T02:24:16.233Z,16.37
2018-11-06T02:29:20.474Z,23.43
2018-11-06T02:34:23.556Z,20.73
2018-11-06T02:39:26.615Z,19.33
2018-11-06T02:44:29.717Z,18.87
2018-11-06T02:49:32.807Z,18.00
2018-11-06T02:54:36.198Z,21.07
2018-11-06T02:59:39.305Z,18.83
2018-11-06T03:04:42.397Z,21.30
2018-11-06T03:09:45.478Z,20.60
2018-11-06T03:14:48.580Z,18.47
2018-11-06T03:19:51.657Z,19.33
2018-11-06T03:24:54.847Z,16.43
2018-11-06T03:29:57.951Z,18.90
2018-11-06T03:35:01.033Z,22.90
2018-11-06T03:40:04.467Z,16.00
2018-11-06T03:45:07.963Z,22.67
2018-11-06T03:50:12.192Z,20.53
2018-11-06T03:55:15.281Z,19.17
2018-11-06T04:00:18.426Z,19.97
2018-11-06T04:05:21.488Z,18.83
2018-11-06T04:10:24.579Z,23.37
2018-11-06T04:15:27.672Z,19.63
2018-11-06T04:20:30.764Z,20.73
2018-11-06T04:25:40.611Z,17.17
2018-11-06T04:30:43.702Z,19.67
2018-11-06T04:35:46.798Z,22.63
2018-11-06T04:40:49.919Z,20.47
2018-11-06T04:45:59.767Z,19.50
2018-11-06T04:51:02.852Z,17.97
2018-11-06T04:56:05.991Z,22.73
2018-11-06T05:01:09.093Z,19.10
2018-11-06T05:06:12.232Z,18.80
2018-11-06T05:11:15.531Z,19.73
2018-11-06T05:16:18.651Z,23.93
2018-11-06T05:21:21.731Z,22.13
2018-11-06T05:26:24.838Z,21.00
2018-11-06T05:31:28.136Z,26.97
2018-11-06T05:36:31.399Z,24.30
2018-11-06T05:41:34.496Z,24.97
2018-11-06T05:46:37.596Z,26.93
2018-11-06T05:51:40.688Z,27.10
2018-11-06T05:56:43.760Z,29.40
2018-11-06T06:01:47.664Z,32.13
2018-11-06T06:06:50.763Z,28.00
2018-11-06T06:11:53.854Z,29.73
2018-11-06T06:16:57.030Z,27.03
2018-11-06T06:22:00.068Z,21.73
2018-11-06T06:27:03.369Z,24.00
2018-11-06T06:32:19.564Z,22.20
2018-11-06T06:37:37.905Z,23.90
2018-11-06T06:42:41.325Z,23.27
2018-11-06T06:47:44.403Z,23.43
2018-11-06T06:52:47.849Z,24.90
2018-11-06T06:57:50.732Z,30.93
2018-11-06T07:02:53.809Z,23.53
2018-11-06T07:07:57.121Z,22.10
2018-11-06T07:13:00.503Z,26.77
2018-11-06T07:18:03.559Z,26.93
2018-11-06T07:23:06.644Z,29.07
2018-11-06T07:28:09.745Z,24.37
2018-11-06T07:33:12.843Z,25.60
2018-11-06T07:38:15.937Z,25.87
2018-11-06T07:43:19.086Z,24.67
2018-11-06T07:48:22.188Z,24.07
2018-11-06T07:53:25.304Z,26.97
2018-11-06T07:58:28.399Z,32.73
2018-11-06T08:03:31.501Z,28.40
2018-11-06T08:08:34.597Z,22.97
2018-11-06T08:13:37.874Z,23.83
2018-11-06T08:18:40.966Z,23.97
2018-11-06T08:23:44.132Z,21.87
2018-11-06T08:28:47.172Z,23.17
2018-11-06T08:33:50.261Z,25.00
2018-11-06T08:38:53.360Z,27.47
2018-11-06T08:43:56.464Z,21.73
2018-11-06T08:48:59.552Z,26.37
2018-11-06T08:54:02.630Z,23.80
2018-11-06T08:59:05.728Z,22.33
2018-11-06T09:09:18.273Z,24.80
2018-11-06T09:14:21.349Z,24.73
2018-11-06T09:19:24.436Z,23.63
2018-11-06T09:24:27.507Z,25.30
2018-11-06T09:29:32.813Z,22.47
2018-11-06T09:34:35.915Z,23.37
2018-11-06T09:39:39.024Z,24.70
2018-11-06T09:44:42.496Z,24.63
2018-11-06T09:49:45.593Z,26.03
2018-11-06T09:54:48.724Z,22.10
2018-11-06T09:59:56.622Z,25.07
2018-11-06T10:04:59.712Z,21.97
2018-11-06T10:10:11.441Z,25.63
2018-11-06T10:15:21.265Z,27.07
2018-11-06T10:20:24.329Z,24.13
2018-11-06T10:25:27.429Z,25.77
2018-11-06T10:30:30.548Z,24.17
2018-11-06T10:35:56.556Z,21.60
2018-11-06T10:40:59.664Z,22.73
2018-11-06T10:46:09.469Z,24.13
2018-11-06T10:51:12.644Z,21.83
2018-11-06T10:56:15.744Z,19.40
2018-11-06T11:12:16.041Z,22.57
2018-11-06T11:17:19.127Z,22.00
2018-11-06T11:22:22.213Z,22.47
2018-11-06T11:27:25.284Z,21.63
2018-11-06T11:32:28.375Z,18.80
2018-11-06T11:37:31.540Z,22.00
2018-11-06T11:42:40.879Z,25.40
2018-11-06T11:47:44.060Z,23.60
2018-11-06T11:52:47.153Z,23.57
2018-11-06T11:57:50.260Z,18.23
2018-11-06T12:02:53.330Z,18.57
2018-11-06T12:07:57.131Z,20.27
2018-11-06T12:13:07.989Z,23.97
2018-11-06T12:18:11.139Z,21.63
2018-11-06T12:23:14.165Z,19.87
2018-11-06T12:28:17.246Z,22.70
2018-11-06T12:33:20.324Z,23.90
2018-11-06T12:38:23.552Z,22.23
2018-11-06T12:43:45.161Z,19.43
2018-11-06T12:48:48.254Z,21.30
2018-11-06T12:53:51.325Z,25.83
2018-11-06T12:58:54.413Z,22.03
2018-11-06T15:44:37.745Z,28.60
2018-11-06T15:49:40.845Z,24.70
2018-11-06T15:54:43.976Z,23.40
2018-11-06T15:59:47.039Z,24.83
2018-11-06T16:04:50.116Z,26.23
2018-11-06T16:09:53.212Z,23.83
2018-11-06T16:14:56.304Z,26.50
2018-11-06T16:19:59.368Z,29.40
2018-11-06T16:25:02.473Z,25.63
2018-11-06T16:30:07.337Z,29.23
2018-11-06T16:35:14.818Z,27.87
2018-11-06T16:40:18.236Z,24.67
2018-11-06T16:45:22.274Z,24.47
2018-11-06T16:50:25.380Z,26.30
2018-11-06T16:55:28.479Z,27.83
2018-11-06T17:00:31.630Z,27.37
2018-11-06T17:05:34.716Z,31.23
2018-11-06T17:10:37.856Z,31.30
2018-11-06T17:15:40.936Z,31.17
2018-11-06T17:20:44.213Z,32.20
2018-11-06T17:25:47.691Z,27.90
2018-11-06T17:30:50.984Z,25.87
2018-11-06T17:35:54.164Z,29.30
2018-11-06T17:40:57.538Z,30.70
2018-11-06T17:46:00.669Z,32.03
2018-11-06T17:51:03.893Z,26.77
2018-11-06T17:56:07.230Z,31.33
2018-11-06T18:01:10.655Z,31.53
2018-11-06T18:06:13.796Z,40.47
2018-11-06T18:11:17.207Z,33.17
2018-11-06T18:16:20.324Z,31.30
2018-11-06T18:21:23.527Z,31.40
2018-11-06T18:26:26.652Z,32.67
2018-11-06T18:31:29.787Z,34.03
2018-11-06T18:36:32.997Z,32.67
2018-11-06T18:41:36.113Z,31.53
2018-11-06T18:46:39.209Z,32.30
2018-11-06T18:51:42.293Z,32.93
2018-11-06T18:56:45.403Z,32.33
2018-11-06T19:01:48.496Z,34.40
2018-11-06T19:06:51.620Z,33.30
2018-11-06T19:11:54.764Z,33.63
2018-11-06T19:16:59.174Z,30.20
2018-11-06T19:22:02.503Z,35.53
2018-11-06T19:27:05.688Z,37.00
2018-11-06T19:32:09.231Z,35.47
2018-11-06T19:37:12.793Z,34.63
2018-11-06T19:42:16.228Z,38.87
2018-11-06T19:47:19.557Z,35.80
2018-11-06T19:52:22.925Z,37.70
2018-11-06T19:57:26.303Z,37.03
2018-11-06T20:02:29.682Z,35.63
2018-11-06T20:07:32.923Z,34.10
2018-11-06T20:12:36.060Z,35.17
2018-11-06T20:17:40.311Z,52.13
2018-11-06T20:22:44.317Z,36.63
2018-11-06T20:27:47.708Z,38.10
2018-11-06T20:32:51.079Z,34.20
2018-11-06T20:37:54.386Z,36.23
2018-11-06T20:42:57.541Z,31.60
2018-11-06T20:48:00.541Z,33.87
2018-11-06T20:53:04.236Z,29.07
2018-11-06T20:58:07.480Z,31.70
2018-11-06T21:03:10.980Z,32.27
2018-11-06T21:08:14.261Z,28.07
2018-11-06T21:13:18.202Z,28.83
2018-11-06T21:18:21.381Z,28.57
2018-11-06T21:23:24.912Z,32.60
2018-11-06T21:28:28.922Z,27.30
2018-11-06T21:33:32.037Z,28.03
2018-11-06T21:38:35.185Z,25.27
2018-11-06T21:43:38.292Z,25.47
2018-11-06T21:48:41.475Z,27.30
2018-11-06T21:53:44.625Z,29.67
2018-11-06T21:58:47.811Z,25.77
2018-11-06T22:03:50.860Z,27.87
2018-11-06T22:08:53.998Z,26.43
2018-11-06T22:13:57.104Z,29.00
2018-11-06T22:19:00.216Z,27.70
2018-11-06T22:24:03.318Z,30.87
2018-11-06T22:29:06.525Z,29.10
2018-11-06T22:34:09.653Z,36.43
2018-11-06T22:39:12.759Z,29.80
2018-11-06T22:44:15.880Z,34.23
2018-11-06T22:49:18.993Z,31.53
2018-11-06T22:54:22.082Z,33.17
2018-11-06T22:59:25.186Z,31.23
2018-11-06T23:04:28.289Z,34.87
2018-11-06T23:09:31.382Z,38.27
2018-11-06T23:14:34.492Z,36.57
2018-11-06T23:19:38.116Z,34.10
2018-11-06T23:24:41.229Z,37.03
2018-11-06T23:29:44.315Z,32.20
2018-11-06T23:34:47.424Z,25.83
2018-11-06T23:39:50.537Z,29.27
2018-11-06T23:44:53.615Z,33.80
2018-11-06T23:49:56.728Z,30.67
2018-11-06T23:55:00.205Z,28.13
